Time;durP1;ratioP1;P1;durP2;ratioP2;P2;SDS_P1;SDS_P2;PMS_P1;PMS_P2;Temp;Humidity;BMP_temperature;BMP_pressure;BME280_temperature;BME280_humidity;BME280_pressure;Samples;Min_cycle;Max_cycle;Signal;HPM_P1;HPM_P2
2023/05/18 00:01:30;;;;;;;5.03;2.00;;;6.30;99.90;;;;;;5009911;28;21024;-51
2023/05/18 00:03:57;;;;;;;14.60;2.13;;;6.10;99.90;;;;;;5009712;28;20993;-51
2023/05/18 00:06:24;;;;;;;6.23;2.47;;;6.20;99.90;;;;;;5014022;28;20471;-51
2023/05/18 00:08:52;;;;;;;6.73;2.50;;;6.20;99.90;;;;;;5013820;28;20463;-51
2023/05/18 00:11:18;;;;;;;8.50;1.93;;;6.10;99.90;;;;;;5014546;28;20482;-51
2023/05/18 00:13:45;;;;;;;6.47;2.30;;;6.10;99.90;;;;;;5014433;28;20526;-51
2023/05/18 00:16:14;;;;;;;8.50;2.80;;;6.00;99.90;;;;;;5012687;28;20547;-52
2023/05/18 00:18:41;;;;;;;7.90;2.30;;;5.90;99.90;;;;;;5011746;28;20529;-52
2023/05/18 00:21:07;;;;;;;8.27;2.43;;;6.00;99.90;;;;;;5013990;28;20483;-50
2023/05/18 00:23:38;;;;;;;6.10;2.53;;;5.80;99.90;;;;;;5013989;28;20502;-53
2023/05/18 00:26:06;;;;;;;7.77;2.60;;;5.70;99.90;;;;;;5014663;28;20550;-53
2023/05/18 00:28:32;;;;;;;8.77;2.90;;;5.80;99.90;;;;;;5008271;28;20637;-51
2023/05/18 00:30:59;;;;;;;8.23;2.37;;;5.70;99.90;;;;;;5011960;28;20546;-51
2023/05/18 00:33:25;;;;;;;8.90;2.67;;;5.70;99.90;;;;;;5011114;28;20535;-51
2023/05/18 00:35:52;;;;;;;5.13;2.50;;;5.60;99.90;;;;;;5012274;28;20616;-51
2023/05/18 00:38:18;;;;;;;6.80;2.30;;;5.70;99.90;;;;;;5012658;28;20518;-51
2023/05/18 00:40:45;;;;;;;7.83;2.30;;;5.60;99.90;;;;;;5013352;28;20550;-52
2023/05/18 00:43:13;;;;;;;9.73;3.03;;;5.50;99.90;;;;;;5012074;28;20517;-52
2023/05/18 00:45:39;;;;;;;5.20;2.40;;;5.60;99.90;;;;;;5011716;28;20972;-51
2023/05/18 00:48:06;;;;;;;4.33;2.20;;;5.50;99.90;;;;;;5007158;28;20455;-51
2023/05/18 00:50:33;;;;;;;3.93;2.00;;;5.40;99.90;;;;;;5012110;28;20448;-51
2023/05/18 00:53:00;;;;;;;15.40;2.87;;;5.40;99.90;;;;;;5013221;28;20470;-51
2023/05/18 00:55:27;;;;;;;5.87;1.70;;;5.50;99.90;;;;;;5012208;28;20503;-51
2023/05/18 00:57:55;;;;;;;5.83;2.20;;;5.40;99.90;;;;;;5011747;28;20489;-51
2023/05/18 01:00:23;;;;;;;19.17;2.00;;;5.40;99.90;;;;;;5013072;28;20490;-51
2023/05/18 01:02:49;;;;;;;11.53;2.60;;;5.30;99.90;;;;;;5012961;28;20467;-51
2023/05/18 01:05:16;;;;;;;7.20;2.37;;;5.30;99.90;;;;;;5005371;28;20460;-52
2023/05/18 01:07:43;;;;;;;9.43;2.30;;;5.40;99.90;;;;;;5011288;28;20571;-52
2023/05/18 01:10:11;;;;;;;7.60;2.10;;;5.30;99.90;;;;;;5012012;28;20502;-51
2023/05/18 01:12:43;;;;;;;6.10;2.13;;;5.30;99.90;;;;;;5003965;28;20561;-51
2023/05/18 01:15:15;;;;;;;3.67;2.27;;;5.40;99.90;;;;;;4999432;28;20483;-51
2023/05/18 01:17:59;;;;;;;4.73;1.90;;;5.30;99.90;;;;;;5011361;28;20581;-51
2023/05/18 01:20:36;;;;;;;3.57;2.37;;;5.30;99.90;;;;;;5006339;28;20555;-50
2023/05/18 01:23:41;;;;;;;5.00;2.70;;;5.20;99.90;;;;;;5008992;28;20483;-51
2023/05/18 01:26:14;;;;;;;4.23;1.93;;;5.10;99.90;;;;;;5002191;28;20474;-51
2023/05/18 01:28:42;;;;;;;5.87;2.30;;;5.10;99.90;;;;;;5011097;28;20467;-51
2023/05/18 01:31:10;;;;;;;4.17;1.93;;;5.00;99.90;;;;;;5010929;28;20502;-51
2023/05/18 01:33:36;;;;;;;5.03;2.27;;;5.10;99.90;;;;;;5009239;28;20522;-51
2023/05/18 01:36:03;;;;;;;8.77;2.80;;;5.10;99.90;;;;;;5009158;28;20527;-51
2023/05/18 01:38:30;;;;;;;12.20;3.03;;;5.00;99.90;;;;;;5009954;28;20519;-51
2023/05/18 01:41:05;;;;;;;8.87;2.27;;;5.10;99.90;;;;;;5010029;28;20551;-51
2023/05/18 01:43:35;;;;;;;5.73;2.30;;;5.10;99.90;;;;;;5007752;28;21507;-52
2023/05/18 01:46:09;;;;;;;4.63;2.50;;;5.10;99.90;;;;;;5007978;28;21012;-51
2023/05/18 01:48:39;;;;;;;5.30;2.30;;;5.10;99.90;;;;;;5010553;28;20466;-51
2023/05/18 01:51:09;;;;;;;16.93;2.90;;;5.00;99.90;;;;;;5002665;28;20975;-51
2023/05/18 01:53:42;;;;;;;5.93;2.60;;;4.90;99.90;;;;;;5006750;28;20523;-53
2023/05/18 01:56:10;;;;;;;7.90;2.53;;;5.00;99.90;;;;;;5008812;28;20497;-51
2023/05/18 01:58:39;;;;;;;4.60;2.30;;;4.90;99.90;;;;;;5008923;28;20488;-51
2023/05/18 02:01:06;;;;;;;9.53;2.47;;;4.80;99.90;;;;;;5006648;28;20463;-50
2023/05/18 02:03:32;;;;;;;6.80;2.23;;;4.80;99.90;;;;;;5009334;28;20519;-52
2023/05/18 02:05:59;;;;;;;3.97;2.10;;;4.80;99.90;;;;;;5009973;28;20546;-52
2023/05/18 02:08:26;;;;;;;5.80;2.40;;;4.90;99.90;;;;;;5008267;28;20459;-50
2023/05/18 02:10:52;;;;;;;5.93;2.60;;;4.70;99.90;;;;;;5007982;28;20586;-53
2023/05/18 02:13:19;;;;;;;7.63;2.60;;;4.70;99.90;;;;;;5009435;28;20514;-52
2023/05/18 02:15:47;;;;;;;4.17;1.90;;;4.50;99.90;;;;;;5006757;28;20460;-52
2023/05/18 02:18:15;;;;;;;4.43;1.70;;;4.60;99.90;;;;;;5006476;28;20842;-52
2023/05/18 02:20:41;;;;;;;5.53;2.20;;;4.50;99.90;;;;;;5007040;28;20461;-52
2023/05/18 02:23:08;;;;;;;9.20;2.73;;;4.50;99.90;;;;;;5007705;28;20524;-51
2023/05/18 02:25:35;;;;;;;7.97;2.60;;;4.60;99.90;;;;;;5001143;28;20559;-53
2023/05/18 02:28:02;;;;;;;5.43;2.77;;;4.50;99.90;;;;;;5009770;28;20455;-53
2023/05/18 02:30:31;;;;;;;3.80;2.00;;;4.40;99.90;;;;;;5006830;28;20474;-52
2023/05/18 02:32:59;;;;;;;13.60;1.93;;;4.30;99.90;;;;;;5010563;28;20487;-52
2023/05/18 02:35:26;;;;;;;8.90;2.30;;;4.30;99.90;;;;;;5005645;28;20487;-52
2023/05/18 02:37:52;;;;;;;5.70;2.53;;;4.40;99.90;;;;;;5007705;28;20587;-52
2023/05/18 02:40:19;;;;;;;8.40;2.70;;;4.40;99.90;;;;;;5008585;28;20592;-52
2023/05/18 02:42:46;;;;;;;5.00;2.50;;;4.30;99.90;;;;;;5011013;28;20911;-52
2023/05/18 02:45:12;;;;;;;6.73;2.23;;;4.30;99.90;;;;;;5008527;28;20506;-52
2023/05/18 02:47:39;;;;;;;5.30;2.20;;;4.30;99.90;;;;;;5009619;28;20490;-52
2023/05/18 02:50:08;;;;;;;9.70;2.50;;;4.20;99.90;;;;;;5010681;28;20471;-52
2023/05/18 02:52:34;;;;;;;5.30;2.37;;;4.10;99.90;;;;;;5000929;28;20970;-53
2023/05/18 02:55:01;;;;;;;8.30;2.27;;;4.20;99.90;;;;;;5010762;28;21181;-53
2023/05/18 02:57:27;;;;;;;3.33;1.77;;;4.10;99.90;;;;;;5009308;28;20523;-53
2023/05/18 02:59:54;;;;;;;4.00;2.43;;;4.10;99.90;;;;;;5009317;28;20486;-52
2023/05/18 03:02:22;;;;;;;7.73;2.70;;;4.20;99.90;;;;;;5011618;28;20891;-51
2023/05/18 03:04:52;;;;;;;6.00;2.30;;;4.10;99.90;;;;;;5009406;28;20581;-51
2023/05/18 03:07:20;;;;;;;9.50;2.73;;;4.10;99.90;;;;;;5003780;28;20450;-52
2023/05/18 03:09:47;;;;;;;3.87;1.83;;;4.00;99.90;;;;;;5011858;28;20444;-53
2023/05/18 03:12:13;;;;;;;5.60;2.07;;;4.00;99.90;;;;;;5009231;28;20498;-50
2023/05/18 03:14:40;;;;;;;2.93;2.20;;;3.90;99.90;;;;;;5010465;28;20483;-51
2023/05/18 03:17:06;;;;;;;11.50;2.47;;;3.90;99.90;;;;;;5009534;28;20495;-51
2023/05/18 03:19:33;;;;;;;3.60;2.03;;;3.90;99.90;;;;;;5008786;28;21011;-53
2023/05/18 03:22:00;;;;;;;9.20;2.57;;;4.00;99.90;;;;;;5010001;28;20470;-52
2023/05/18 03:24:38;;;;;;;5.10;2.17;;;4.10;99.90;;;;;;5007878;28;21061;-52
2023/05/18 03:27:05;;;;;;;6.33;2.27;;;4.20;99.90;;;;;;5006505;28;20485;-50
2023/05/18 03:29:33;;;;;;;5.10;2.30;;;4.10;99.90;;;;;;5007854;28;20576;-52
2023/05/18 03:31:59;;;;;;;7.77;2.47;;;4.10;99.90;;;;;;5004715;28;20547;-52
2023/05/18 03:34:26;;;;;;;5.43;2.00;;;4.10;99.90;;;;;;5009174;28;20485;-51
2023/05/18 03:36:53;;;;;;;5.87;2.63;;;4.10;99.90;;;;;;5008501;28;20499;-51
2023/05/18 03:39:20;;;;;;;4.90;2.47;;;4.10;99.90;;;;;;5011539;28;20491;-51
2023/05/18 03:41:48;;;;;;;6.20;2.50;;;4.20;99.90;;;;;;5012857;28;20553;-52
2023/05/18 03:44:15;;;;;;;5.53;2.33;;;4.10;99.90;;;;;;5009670;28;20579;-53
2023/05/18 03:46:41;;;;;;;13.27;2.20;;;4.20;99.90;;;;;;5009459;28;20462;-52
2023/05/18 03:49:08;;;;;;;4.10;2.33;;;4.20;99.90;;;;;;5011056;28;20497;-52
2023/05/18 03:51:34;;;;;;;5.80;2.30;;;4.30;99.90;;;;;;5011545;28;20474;-51
2023/05/18 03:54:01;;;;;;;9.60;2.70;;;4.40;99.90;;;;;;5011198;28;20518;-52
2023/05/18 03:56:29;;;;;;;6.97;2.70;;;4.50;99.90;;;;;;5012230;28;20495;-52
2023/05/18 03:58:58;;;;;;;5.53;2.70;;;4.40;99.90;;;;;;5009554;28;20486;-51
2023/05/18 04:01:29;;;;;;;3.40;2.47;;;4.60;99.90;;;;;;5011401;28;20567;-53
2023/05/18 04:03:56;;;;;;;7.00;2.50;;;4.60;99.90;;;;;;5010249;28;20482;-51
2023/05/18 04:06:24;;;;;;;6.60;3.07;;;4.60;99.90;;;;;;5012119;28;20528;-52
2023/05/18 04:08:51;;;;;;;7.13;2.40;;;4.60;99.90;;;;;;5012465;28;20460;-52
2023/05/18 04:11:18;;;;;;;4.37;2.67;;;4.60;99.90;;;;;;5007092;28;20506;-56
2023/05/18 04:13:44;;;;;;;6.87;2.80;;;4.60;99.90;;;;;;5012474;28;20513;-55
2023/05/18 04:16:13;;;;;;;5.03;3.13;;;4.60;99.90;;;;;;5012257;28;20483;-57
2023/05/18 04:18:40;;;;;;;6.40;3.43;;;4.70;99.90;;;;;;5013134;28;21009;-56
2023/05/18 04:21:06;;;;;;;7.20;2.90;;;4.80;99.90;;;;;;5010256;28;20499;-57
2023/05/18 04:23:37;;;;;;;11.63;3.40;;;4.80;99.90;;;;;;5024077;23;20494;-50
2023/05/18 04:26:04;;;;;;;7.00;3.10;;;4.90;99.90;;;;;;4994045;28;20557;-51
2023/05/18 04:28:31;;;;;;;7.70;3.40;;;4.90;99.90;;;;;;4992416;28;20488;-50
2023/05/18 04:30:58;;;;;;;8.73;3.23;;;5.00;99.90;;;;;;4993049;28;20509;-50
2023/05/18 04:33:26;;;;;;;7.30;3.50;;;5.10;99.90;;;;;;4997770;28;20465;-50
2023/05/18 04:35:53;;;;;;;9.20;2.90;;;5.30;99.90;;;;;;4990988;28;20492;-50
2023/05/18 04:38:22;;;;;;;8.80;2.93;;;5.30;99.90;;;;;;4994770;28;20476;-50
2023/05/18 04:40:48;;;;;;;10.27;3.07;;;5.40;99.90;;;;;;4991497;28;20470;-50
2023/05/18 04:43:16;;;;;;;12.07;2.80;;;5.50;99.90;;;;;;4999189;28;20466;-50
2023/05/18 04:45:44;;;;;;;8.43;3.00;;;5.70;99.90;;;;;;4994232;28;20839;-51
2023/05/18 04:48:12;;;;;;;5.37;2.83;;;5.70;99.90;;;;;;4992901;28;20543;-50
2023/05/18 04:50:40;;;;;;;9.50;3.00;;;5.70;99.90;;;;;;4990340;28;20471;-50
2023/05/18 04:53:07;;;;;;;6.10;2.67;;;5.80;99.90;;;;;;4994907;28;20615;-53
2023/05/18 04:55:34;;;;;;;9.33;3.00;;;5.90;99.90;;;;;;4993570;28;20498;-53
2023/05/18 04:58:01;;;;;;;15.37;3.40;;;6.00;99.90;;;;;;4993285;28;20510;-53
2023/05/18 05:00:29;;;;;;;19.03;3.53;;;6.10;99.90;;;;;;4994137;28;20470;-53
2023/05/18 05:02:56;;;;;;;8.10;3.10;;;6.20;99.90;;;;;;4993608;28;20503;-53
2023/05/18 05:05:23;;;;;;;6.77;3.00;;;6.30;99.90;;;;;;4992274;28;20569;-54
2023/05/18 05:07:51;;;;;;;6.53;2.63;;;6.30;99.90;;;;;;4989650;28;20500;-54
2023/05/18 05:10:18;;;;;;;10.57;3.00;;;6.40;99.90;;;;;;4990960;28;20953;-52
2023/05/18 05:12:45;;;;;;;8.00;2.63;;;6.50;99.90;;;;;;4994098;28;20501;-53
2023/05/18 05:15:12;;;;;;;10.93;2.80;;;6.50;99.90;;;;;;4991084;28;20904;-53
2023/05/18 05:17:38;;;;;;;11.37;2.47;;;6.60;99.90;;;;;;4992043;28;20500;-53
2023/05/18 05:20:06;;;;;;;8.27;2.90;;;6.70;99.90;;;;;;4995064;28;20567;-53
2023/05/18 05:22:33;;;;;;;8.20;3.10;;;6.80;99.90;;;;;;4991878;28;20473;-53
2023/05/18 05:25:01;;;;;;;7.03;2.90;;;6.80;99.90;;;;;;4992494;28;20530;-53
2023/05/18 05:27:27;;;;;;;12.60;3.17;;;6.80;99.90;;;;;;4993163;28;20512;-52
2023/05/18 05:29:54;;;;;;;6.60;2.73;;;6.90;99.90;;;;;;4997720;28;20562;-53
2023/05/18 05:32:20;;;;;;;6.63;2.47;;;7.00;99.90;;;;;;4993104;28;21346;-53
2023/05/18 05:34:49;;;;;;;7.17;2.73;;;7.10;99.90;;;;;;4990402;28;20526;-53
2023/05/18 05:37:16;;;;;;;6.53;2.90;;;7.20;99.90;;;;;;4994389;28;20471;-53
2023/05/18 05:39:42;;;;;;;6.43;2.70;;;7.30;99.90;;;;;;4990399;28;20492;-52
2023/05/18 05:42:10;;;;;;;8.20;2.13;;;7.40;99.90;;;;;;4993362;28;20506;-53
2023/05/18 05:44:38;;;;;;;7.60;2.37;;;7.50;99.90;;;;;;4998293;28;20553;-53
2023/05/18 05:47:05;;;;;;;8.63;3.00;;;7.60;99.90;;;;;;4992466;28;20515;-52
2023/05/18 05:49:31;;;;;;;7.67;3.07;;;7.70;99.90;;;;;;4990940;28;20499;-51
2023/05/18 05:51:58;;;;;;;8.50;2.50;;;7.80;99.90;;;;;;4991804;28;20503;-51
2023/05/18 05:54:24;;;;;;;8.17;3.50;;;8.00;99.90;;;;;;4992377;28;20508;-51
2023/05/18 05:56:51;;;;;;;9.80;3.23;;;8.10;99.90;;;;;;4995232;28;20500;-51
2023/05/18 05:59:19;;;;;;;6.87;2.13;;;8.20;99.90;;;;;;4995651;28;20512;-51
2023/05/18 06:01:45;;;;;;;11.70;3.13;;;8.30;99.90;;;;;;4991853;28;20467;-52
2023/05/18 06:04:14;;;;;;;15.23;3.07;;;8.40;99.90;;;;;;4992654;28;20526;-51
2023/05/18 06:06:41;;;;;;;9.43;3.23;;;8.50;96.80;;;;;;4996388;28;20572;-52
2023/05/18 06:09:07;;;;;;;11.60;3.10;;;8.60;82.90;;;;;;4992495;28;20985;-52
2023/05/18 06:11:34;;;;;;;16.00;2.93;;;8.70;21.30;;;;;;4992352;28;20470;-52
2023/05/18 06:14:01;;;;;;;9.00;2.50;;;8.80;26.30;;;;;;4990542;28;20812;-52
2023/05/18 06:16:28;;;;;;;10.10;2.10;;;8.90;29.20;;;;;;4990182;28;20911;-51
2023/05/18 06:18:55;;;;;;;18.43;3.27;;;9.10;31.20;;;;;;4990265;28;20512;-51
2023/05/18 06:21:22;;;;;;;7.13;2.30;;;9.30;48.90;;;;;;4991435;28;20495;-51
2023/05/18 06:23:48;;;;;;;22.30;3.07;;;9.40;42.80;;;;;;4986715;28;21115;-52
2023/05/18 06:26:15;;;;;;;31.60;3.63;;;9.50;43.80;;;;;;4989683;28;20489;-51
2023/05/18 06:28:42;;;;;;;12.20;2.83;;;9.50;56.30;;;;;;4989409;28;20841;-52
2023/05/18 06:31:09;;;;;;;7.80;3.10;;;9.60;56.00;;;;;;4988757;28;20942;-51
2023/05/18 06:33:37;;;;;;;7.90;2.57;;;9.70;53.90;;;;;;4989678;28;20468;-52
2023/05/18 06:36:04;;;;;;;12.00;2.80;;;9.80;72.10;;;;;;4989918;28;20463;-51
2023/05/18 06:38:31;;;;;;;18.77;2.97;;;9.90;81.10;;;;;;4991810;28;20570;-52
2023/05/18 06:40:57;;;;;;;11.50;2.83;;;10.00;72.00;;;;;;4986087;28;20548;-52
2023/05/18 06:43:25;;;;;;;8.43;2.60;;;10.10;70.90;;;;;;4992248;28;20464;-51
2023/05/18 06:45:52;;;;;;;13.00;2.90;;;10.20;81.80;;;;;;4994941;28;20468;-52
2023/05/18 06:48:18;;;;;;;10.97;3.20;;;10.20;89.60;;;;;;4990316;28;21041;-52
2023/05/18 06:50:46;;;;;;;8.43;2.60;;;10.20;87.50;;;;;;4983279;28;20561;-52
2023/05/18 06:53:13;;;;;;;13.30;3.43;;;10.20;99.90;;;;;;4991406;28;20527;-52
2023/05/18 06:55:39;;;;;;;11.30;3.03;;;10.30;99.90;;;;;;4989067;28;20490;-52
2023/05/18 06:58:06;;;;;;;18.23;2.80;;;10.40;99.90;;;;;;4989554;28;20499;-51
2023/05/18 07:00:33;;;;;;;14.60;3.20;;;10.40;99.90;;;;;;4990306;28;20942;-51
2023/05/18 07:03:00;;;;;;;10.63;2.70;;;10.40;99.90;;;;;;4989221;28;20467;-51
2023/05/18 07:05:27;;;;;;;9.80;3.00;;;10.60;99.90;;;;;;4988967;28;20495;-52
2023/05/18 07:07:55;;;;;;;8.40;2.93;;;10.90;99.90;;;;;;4991346;28;20515;-52
2023/05/18 07:10:22;;;;;;;7.23;2.60;;;11.00;99.90;;;;;;4988266;28;20487;-52
2023/05/18 07:12:49;;;;;;;10.03;2.73;;;11.00;99.90;;;;;;4988289;28;20461;-51
2023/05/18 07:15:16;;;;;;;11.67;3.07;;;11.20;99.90;;;;;;4990288;28;20519;-52
2023/05/18 07:17:43;;;;;;;10.53;3.07;;;11.20;99.90;;;;;;4987285;28;20504;-51
2023/05/18 07:20:10;;;;;;;13.13;3.40;;;11.20;99.90;;;;;;4988177;28;20543;-53
2023/05/18 07:22:37;;;;;;;6.07;2.27;;;11.20;99.90;;;;;;4994719;28;20941;-52
2023/05/18 07:25:05;;;;;;;16.53;3.40;;;11.30;99.90;;;;;;4988659;28;20526;-51
2023/05/18 07:27:33;;;;;;;8.30;2.37;;;11.40;28.80;;;;;;4988044;28;20865;-53
2023/05/18 07:29:59;;;;;;;8.30;2.73;;;11.40;48.00;;;;;;4988905;28;20952;-52
2023/05/18 07:32:26;;;;;;;6.87;2.47;;;11.50;59.20;;;;;;4990087;28;22488;-53
2023/05/18 07:34:52;;;;;;;9.23;3.13;;;11.40;68.20;;;;;;4987894;28;20576;-52
2023/05/18 07:37:19;;;;;;;9.03;2.70;;;11.20;89.20;;;;;;4986743;28;20485;-53
2023/05/18 07:39:45;;;;;;;14.87;2.90;;;11.20;82.60;;;;;;4988051;28;20583;-52
2023/05/18 07:42:13;;;;;;;10.27;3.37;;;11.20;82.20;;;;;;4990969;28;20496;-52
2023/05/18 07:44:40;;;;;;;7.30;2.70;;;11.30;80.20;;;;;;4988861;28;20515;-53
2023/05/18 07:47:06;;;;;;;7.00;2.60;;;11.40;75.70;;;;;;4990502;28;20491;-52
2023/05/18 07:49:33;;;;;;;8.53;2.47;;;11.50;89.50;;;;;;4991456;28;20498;-53
2023/05/18 07:52:01;;;;;;;9.70;3.10;;;11.70;99.90;;;;;;4993658;28;21032;-52
2023/05/18 07:54:27;;;;;;;9.60;2.37;;;12.00;99.90;;;;;;4990682;28;20491;-52
2023/05/18 07:56:54;;;;;;;10.20;2.90;;;12.20;99.90;;;;;;4991748;28;20523;-53
2023/05/18 07:59:22;;;;;;;10.40;2.70;;;12.50;99.90;;;;;;4988718;28;20527;-52
2023/05/18 08:01:48;;;;;;;9.03;2.20;;;12.60;99.90;;;;;;4990105;28;20521;-55
2023/05/18 08:04:15;;;;;;;7.77;2.50;;;12.50;99.90;;;;;;4990847;28;20543;-52
2023/05/18 08:06:42;;;;;;;6.43;2.10;;;12.60;99.90;;;;;;4995028;28;20467;-52
2023/05/18 08:09:08;;;;;;;9.73;2.77;;;12.60;99.90;;;;;;4990459;28;20468;-52
2023/05/18 08:11:35;;;;;;;17.03;2.77;;;12.30;99.90;;;;;;4989169;28;20469;-52
2023/05/18 08:14:02;;;;;;;7.53;2.10;;;12.20;99.90;;;;;;4989841;28;20558;-53
2023/05/18 08:16:33;;;;;;;4.77;2.23;;;12.20;99.90;;;;;;4990890;28;20460;-52
2023/05/18 08:18:59;;;;;;;20.77;3.27;;;12.10;99.90;;;;;;4990794;28;20480;-52
2023/05/18 08:21:27;;;;;;;5.63;2.03;;;12.10;99.90;;;;;;4997721;28;20474;-52
2023/05/18 08:23:53;;;;;;;7.50;1.90;;;12.20;99.90;;;;;;4989813;28;20523;-52
2023/05/18 08:26:20;;;;;;;9.60;2.43;;;12.40;99.90;;;;;;4990486;28;20468;-52
2023/05/18 08:28:48;;;;;;;12.77;2.30;;;12.40;99.90;;;;;;4989979;28;20462;-57
2023/05/18 08:31:15;;;;;;;8.30;3.30;;;12.40;99.90;;;;;;4992951;28;20471;-52
2023/05/18 08:33:43;;;;;;;7.73;3.20;;;12.40;99.90;;;;;;4991311;28;20490;-53
2023/05/18 08:36:10;;;;;;;6.20;2.00;;;12.30;99.90;;;;;;4996603;28;20495;-53
2023/05/18 08:38:36;;;;;;;17.50;2.47;;;12.40;99.90;;;;;;4991584;28;20942;-53
2023/05/18 08:41:11;;;;;;;6.53;2.63;;;12.50;99.90;;;;;;4991653;28;20498;-53
2023/05/18 08:43:39;;;;;;;7.80;2.53;;;12.80;99.90;;;;;;4986103;28;20478;-53
2023/05/18 08:46:13;;;;;;;12.00;2.70;;;12.90;99.90;;;;;;4986492;28;20505;-53
2023/05/18 08:48:44;;;;;;;5.23;2.57;;;13.00;99.90;;;;;;4991182;28;21190;-53
2023/05/18 08:51:13;;;;;;;5.93;2.70;;;13.10;99.90;;;;;;4986195;28;20467;-52
2023/05/18 08:53:40;;;;;;;8.03;2.50;;;13.20;99.90;;;;;;4992943;28;20525;-52
2023/05/18 08:56:09;;;;;;;6.60;1.80;;;13.30;99.90;;;;;;4986902;28;20477;-53
2023/05/18 08:58:40;;;;;;;9.93;2.53;;;13.30;99.90;;;;;;4989893;28;20522;-53
2023/05/18 09:01:07;;;;;;;8.30;2.27;;;13.70;99.90;;;;;;4990106;28;20487;-53
2023/05/18 09:03:34;;;;;;;5.93;2.60;;;13.80;99.90;;;;;;4991795;28;20463;-52
2023/05/18 09:06:03;;;;;;;8.67;2.97;;;13.90;99.90;;;;;;4993547;28;20467;-53
2023/05/18 09:08:31;;;;;;;7.63;2.30;;;13.80;99.90;;;;;;4989884;28;20522;-52
2023/05/18 09:10:59;;;;;;;9.80;2.50;;;13.70;99.90;;;;;;4991858;28;20547;-52
2023/05/18 09:13:27;;;;;;;6.00;2.00;;;14.00;99.90;;;;;;4982865;28;20535;-53
2023/05/18 09:15:54;;;;;;;8.90;3.17;;;14.20;99.90;;;;;;4990890;28;20523;-53
2023/05/18 09:18:20;;;;;;;10.27;2.40;;;14.40;99.90;;;;;;4990273;28;20544;-53
2023/05/18 09:20:47;;;;;;;9.40;3.03;;;14.70;99.90;;;;;;4987954;28;20584;-53
2023/05/18 09:23:16;;;;;;;10.20;2.43;;;15.30;99.90;;;;;;4982113;28;20461;-53
2023/05/18 09:25:45;;;;;;;8.33;2.10;;;15.50;99.90;;;;;;4992648;28;20486;-53
2023/05/18 09:28:13;;;;;;;5.53;1.80;;;15.30;99.90;;;;;;4986290;28;20897;-54
2023/05/18 09:30:41;;;;;;;6.63;1.97;;;16.10;99.90;;;;;;4990975;28;20464;-54
2023/05/18 09:33:16;;;;;;;7.43;2.17;;;16.60;99.90;;;;;;4993915;28;20519;-53
2023/05/18 09:35:44;;;;;;;2.73;1.60;;;16.00;99.90;;;;;;4989734;28;20550;-53
2023/05/18 09:38:12;;;;;;;4.57;1.80;;;16.20;99.90;;;;;;4989444;28;20466;-53
2023/05/18 09:40:44;;;;;;;5.43;1.80;;;16.30;99.90;;;;;;4985574;28;20548;-53
2023/05/18 09:43:10;;;;;;;5.67;2.13;;;16.10;99.90;;;;;;4985836;28;20547;-54
2023/05/18 09:45:41;;;;;;;6.40;2.13;;;15.60;99.90;;;;;;4988105;28;20522;-54
2023/05/18 09:48:09;;;;;;;5.30;1.80;;;15.20;99.90;;;;;;4986835;28;20464;-53
2023/05/18 09:50:36;;;;;;;3.13;1.80;;;14.80;99.90;;;;;;4989576;28;20907;-53
2023/05/18 09:53:05;;;;;;;13.20;2.27;;;14.90;99.90;;;;;;4989681;28;20457;-53
2023/05/18 09:55:32;;;;;;;5.43;2.00;;;14.90;99.90;;;;;;4988903;28;21123;-53
2023/05/18 09:58:02;;;;;;;5.93;2.23;;;14.80;99.90;;;;;;4991137;28;20496;-54
2023/05/18 10:00:28;;;;;;;6.43;2.20;;;14.80;99.90;;;;;;4991829;28;20868;-54
2023/05/18 10:02:55;;;;;;;12.23;2.67;;;14.30;99.90;;;;;;4991599;28;20464;-54
2023/05/18 10:05:25;;;;;;;9.50;2.80;;;14.50;99.90;;;;;;4993719;28;20489;-53
2023/05/18 10:07:52;;;;;;;12.37;2.63;;;14.30;99.90;;;;;;4991409;28;20880;-53
2023/05/18 10:10:19;;;;;;;2.80;1.53;;;14.20;99.90;;;;;;4986385;28;20495;-53
2023/05/18 10:12:46;;;;;;;6.63;1.87;;;14.40;99.90;;;;;;4992114;28;20515;-53
2023/05/18 10:15:16;;;;;;;4.30;1.70;;;15.10;99.90;;;;;;4988189;28;20559;-54
2023/05/18 10:17:44;;;;;;;8.13;2.27;;;15.70;99.90;;;;;;4990503;28;20452;-53
2023/05/18 10:20:14;;;;;;;8.23;2.93;;;16.40;99.90;;;;;;4985279;28;20480;-53
2023/05/18 10:22:41;;;;;;;19.77;2.30;;;16.70;99.90;;;;;;4986451;28;20452;-53
2023/05/18 10:25:11;;;;;;;4.43;1.83;;;17.50;99.90;;;;;;5013182;22;20939;-54
2023/05/18 10:27:38;;;;;;;6.67;1.83;;;16.50;99.90;;;;;;5013036;28;20506;-55
2023/05/18 10:30:07;;;;;;;7.47;2.07;;;18.20;99.90;;;;;;5003849;28;20552;-52
2023/05/18 10:32:36;;;;;;;5.50;1.63;;;19.30;99.90;;;;;;5009905;28;20468;-54
2023/05/18 10:35:04;;;;;;;5.30;2.10;;;19.10;99.90;;;;;;5010193;28;20583;-54
2023/05/18 10:37:34;;;;;;;12.57;2.57;;;16.60;99.90;;;;;;4999812;28;20468;-52
2023/05/18 10:40:03;;;;;;;5.50;1.97;;;18.30;99.90;;;;;;4995596;28;20570;-53
2023/05/18 10:42:30;;;;;;;10.73;2.93;;;18.70;99.90;;;;;;4996425;28;20468;-54
2023/05/18 10:45:00;;;;;;;2.73;1.73;;;18.70;99.90;;;;;;4993191;28;21159;-53
2023/05/18 10:47:27;;;;;;;7.30;2.33;;;19.50;99.90;;;;;;4983824;28;20479;-54
2023/05/18 10:49:56;;;;;;;5.63;2.40;;;18.40;99.90;;;;;;4992692;28;20484;-53
2023/05/18 10:52:25;;;;;;;6.70;2.10;;;19.00;99.90;;;;;;4985349;28;20493;-53
2023/05/18 10:54:52;;;;;;;5.03;1.70;;;19.60;99.90;;;;;;4986812;28;20480;-54
2023/05/18 10:57:21;;;;;;;4.80;2.00;;;19.10;99.90;;;;;;4987538;28;20974;-54
2023/05/18 10:59:48;;;;;;;5.57;2.23;;;20.40;99.90;;;;;;4987563;28;20492;-53
2023/05/18 11:02:18;;;;;;;7.10;2.73;;;20.00;99.90;;;;;;4987601;28;20472;-54
2023/05/18 11:04:47;;;;;;;6.47;3.60;;;20.50;99.90;;;;;;4990441;28;21005;-53
2023/05/18 11:07:16;;;;;;;12.20;4.50;;;19.50;99.90;;;;;;4989600;28;20467;-53
2023/05/18 11:09:44;;;;;;;8.43;2.63;;;18.40;99.90;;;;;;4998676;28;20469;-53
2023/05/18 11:12:16;;;;;;;7.00;2.27;;;17.50;99.90;;;;;;4992327;28;20497;-53
2023/05/18 11:14:49;;;;;;;14.43;3.30;;;17.30;99.90;;;;;;4988178;28;20547;-53
2023/05/18 11:17:17;;;;;;;9.80;2.00;;;16.50;99.90;;;;;;4985955;28;20465;-55
2023/05/18 11:20:11;;;;;;;10.13;2.40;;;16.30;99.90;;;;;;4995115;28;20499;-53
2023/05/18 11:22:46;;;;;;;5.60;2.00;;;17.00;99.90;;;;;;4982857;28;20556;-53
2023/05/18 11:25:38;;;;;;;5.30;2.10;;;17.50;99.90;;;;;;4991584;28;20498;-54
2023/05/18 11:28:08;;;;;;;5.93;1.70;;;18.20;99.90;;;;;;4991238;28;20884;-52
2023/05/18 11:30:51;;;;;;;4.47;1.70;;;18.50;99.90;;;;;;4991565;28;20457;-53
2023/05/18 11:33:23;;;;;;;4.30;1.93;;;19.00;99.90;;;;;;4981554;28;20495;-53
2023/05/18 11:36:02;;;;;;;7.90;3.10;;;18.80;99.90;;;;;;4992333;28;20516;-54
2023/05/18 11:38:54;;;;;;;7.90;2.10;;;19.90;99.90;;;;;;5005299;28;20460;-54
2023/05/18 11:41:32;;;;;;;4.33;1.90;;;18.80;99.90;;;;;;4999868;28;20517;-53
2023/05/18 11:44:16;;;;;;;7.10;1.80;;;17.70;99.90;;;;;;4985535;28;20465;-53
2023/05/18 11:46:53;;;;;;;4.60;1.90;;;17.30;99.90;;;;;;4985400;28;20453;-53
2023/05/18 11:49:22;;;;;;;9.37;2.70;;;17.10;99.90;;;;;;4992594;28;20464;-54
2023/05/18 11:52:03;;;;;;;4.43;2.03;;;16.80;99.90;;;;;;4986653;28;20463;-52
2023/05/18 11:54:39;;;;;;;5.87;2.30;;;16.50;99.90;;;;;;4989530;28;20512;-52
2023/05/18 11:57:06;;;;;;;6.30;2.33;;;16.20;99.90;;;;;;4986685;28;20456;-53
2023/05/18 11:59:36;;;;;;;2.90;1.83;;;16.10;99.90;;;;;;4988433;28;20904;-53
2023/05/18 12:02:03;;;;;;;3.90;1.90;;;16.50;99.90;;;;;;4999703;28;20480;-53
2023/05/18 12:04:32;;;;;;;3.90;1.40;;;17.00;99.90;;;;;;4988030;28;20488;-54
2023/05/18 12:07:00;;;;;;;4.77;2.07;;;17.50;99.90;;;;;;4993039;28;20979;-52
2023/05/18 12:09:30;;;;;;;6.70;1.70;;;18.00;99.90;;;;;;4990003;28;20468;-53
2023/05/18 12:11:58;;;;;;;9.00;2.07;;;18.50;99.90;;;;;;4988887;28;20807;-53
2023/05/18 12:14:26;;;;;;;8.90;2.00;;;18.40;99.90;;;;;;4992297;28;20513;-54
2023/05/18 12:16:54;;;;;;;3.50;1.77;;;17.90;99.90;;;;;;4983214;28;20488;-53
2023/05/18 12:19:22;;;;;;;8.43;1.80;;;17.40;99.90;;;;;;4989709;28;21254;-53
2023/05/18 12:21:49;;;;;;;6.97;1.93;;;17.30;99.90;;;;;;4995239;28;20480;-53
2023/05/18 12:24:15;;;;;;;3.10;1.53;;;17.10;99.90;;;;;;4993070;28;20492;-54
2023/05/18 12:26:45;;;;;;;6.63;2.40;;;17.00;99.90;;;;;;4992231;28;20488;-53
2023/05/18 12:29:18;;;;;;;4.47;2.07;;;16.80;99.90;;;;;;4990991;28;20547;-54
2023/05/18 12:31:46;;;;;;;7.57;2.33;;;16.40;99.90;;;;;;4995143;28;20457;-53
2023/05/18 12:34:13;;;;;;;4.93;2.20;;;16.40;99.90;;;;;;4992921;28;20925;-53
2023/05/18 12:36:42;;;;;;;6.60;2.50;;;16.60;99.90;;;;;;4991415;28;20475;-55
2023/05/18 12:39:09;;;;;;;6.87;2.37;;;16.60;99.90;;;;;;5001524;28;20953;-56
2023/05/18 12:41:36;;;;;;;13.20;3.03;;;16.80;99.90;;;;;;5006401;28;20520;-56
2023/05/18 12:44:03;;;;;;;7.83;2.70;;;16.00;99.90;;;;;;4990745;28;20493;-55
2023/05/18 12:46:31;;;;;;;5.93;2.07;;;17.10;99.90;;;;;;4993107;28;20982;-56
2023/05/18 12:49:00;;;;;;;6.00;2.30;;;17.70;99.90;;;;;;4992593;28;20488;-56
2023/05/18 12:51:32;;;;;;;23.63;4.70;;;18.00;99.90;;;;;;4994062;28;20471;-56
2023/05/18 12:53:59;;;;;;;7.67;2.80;;;18.70;99.90;;;;;;4992996;28;20464;-55
2023/05/18 12:56:26;;;;;;;8.53;3.30;;;18.60;99.90;;;;;;4995711;28;20461;-56